createdAt,value
2023-03-10T00:01:13.864Z,83.94
2023-03-10T00:03:41.025Z,84.95
2023-03-10T00:06:08.586Z,84.18
2023-03-10T00:08:35.318Z,83.88
2023-03-10T00:11:02.159Z,83.95
2023-03-10T00:13:28.705Z,82.83
2023-03-10T00:15:55.305Z,83.08
2023-03-10T00:18:21.923Z,83.64
2023-03-10T00:20:51.710Z,84.92
2023-03-10T00:23:18.936Z,85.28
2023-03-10T00:25:45.490Z,85.56
2023-03-10T00:28:12.376Z,85.12
2023-03-10T00:30:38.945Z,84.91
2023-03-10T00:33:07.560Z,84.67
2023-03-10T00:35:34.160Z,83.93
2023-03-10T00:38:02.600Z,84.59
2023-03-10T00:40:29.194Z,84.60
2023-03-10T00:42:56.528Z,84.25
2023-03-10T00:45:23.084Z,83.97
2023-03-10T00:47:49.670Z,84.55
2023-03-10T00:50:16.422Z,84.83
2023-03-10T00:52:42.992Z,84.31
2023-03-10T00:55:09.672Z,85.03
2023-03-10T00:57:36.525Z,84.47
2023-03-10T01:00:05.000Z,85.83
2023-03-10T01:02:31.554Z,86.59
2023-03-10T01:04:58.151Z,85.56
2023-03-10T01:07:24.700Z,84.84
2023-03-10T01:09:51.268Z,84.79
2023-03-10T01:12:17.978Z,84.26
2023-03-10T01:14:44.632Z,83.93
2023-03-10T01:17:11.231Z,85.41
2023-03-10T01:19:37.788Z,85.01
2023-03-10T01:22:04.415Z,84.56
2023-03-10T01:24:31.132Z,85.11
2023-03-10T01:26:57.669Z,84.93
2023-03-10T01:29:24.375Z,84.48
2023-03-10T01:31:50.973Z,83.93
2023-03-10T01:34:17.570Z,84.63
2023-03-10T01:36:44.112Z,84.13
2023-03-10T01:39:10.777Z,85.59
2023-03-10T01:41:41.278Z,86.69
2023-03-10T01:44:15.375Z,86.11
2023-03-10T01:46:45.525Z,86.72
2023-03-10T01:49:23.922Z,86.99
2023-03-10T01:51:55.935Z,86.52
2023-03-10T01:54:26.425Z,87.98
2023-03-10T01:56:54.131Z,88.66
2023-03-10T01:59:21.141Z,87.41
2023-03-10T02:01:49.464Z,87.40
2023-03-10T02:04:23.408Z,88.41
2023-03-10T02:06:50.899Z,87.94
2023-03-10T02:09:18.760Z,88.18
2023-03-10T02:11:47.340Z,87.86
2023-03-10T02:14:14.294Z,86.89
2023-03-10T02:16:41.130Z,86.69
2023-03-10T02:19:15.347Z,88.35
2023-03-10T02:21:45.665Z,87.18
2023-03-10T02:24:19.493Z,86.66
2023-03-10T02:26:53.401Z,87.29
2023-03-10T02:29:58.764Z,87.40
2023-03-10T02:32:29.709Z,86.19
2023-03-10T02:34:56.461Z,89.69
2023-03-10T02:37:30.879Z,88.29
2023-03-10T02:39:57.928Z,87.50
2023-03-10T02:42:27.202Z,88.61
2023-03-10T02:44:54.223Z,87.86
2023-03-10T02:47:20.788Z,87.31
2023-03-10T02:49:47.514Z,86.96
2023-03-10T02:52:27.163Z,88.10
2023-03-10T02:54:53.841Z,87.23
2023-03-10T02:57:21.062Z,86.85
2023-03-10T02:59:47.752Z,87.11
2023-03-10T03:02:14.916Z,87.50
2023-03-10T03:04:41.492Z,87.47
2023-03-10T03:07:08.196Z,88.51
2023-03-10T03:09:35.725Z,88.09
2023-03-10T03:12:02.449Z,88.39
2023-03-10T03:14:29.793Z,88.81
2023-03-10T03:16:57.052Z,90.23
2023-03-10T03:19:23.727Z,91.81
2023-03-10T03:21:52.422Z,90.43
2023-03-10T03:24:21.161Z,90.18
2023-03-10T03:26:48.204Z,88.87
2023-03-10T03:29:18.468Z,89.48
2023-03-10T03:31:45.212Z,89.05
2023-03-10T03:34:20.820Z,89.31
2023-03-10T03:36:49.050Z,90.14
2023-03-10T03:39:20.753Z,89.49
2023-03-10T03:41:53.464Z,91.62
2023-03-10T03:44:20.285Z,91.59
2023-03-10T03:46:49.052Z,90.61
2023-03-10T03:49:15.858Z,90.37
2023-03-10T03:51:43.156Z,89.80
2023-03-10T03:54:10.563Z,89.88
2023-03-10T03:56:39.272Z,90.16
2023-03-10T03:59:06.497Z,88.63
2023-03-10T04:01:34.003Z,88.20
2023-03-10T04:04:03.031Z,88.31
2023-03-10T04:06:30.094Z,88.34
2023-03-10T04:08:56.767Z,88.27
2023-03-10T04:11:25.702Z,89.54
2023-03-10T04:13:52.283Z,88.78
2023-03-10T04:16:19.772Z,88.34
2023-03-10T04:18:46.926Z,88.86
2023-03-10T04:21:17.590Z,88.77
2023-03-10T04:23:46.013Z,88.00
2023-03-10T04:26:16.256Z,87.16
2023-03-10T04:28:43.164Z,86.65
2023-03-10T04:31:16.949Z,87.37
2023-03-10T04:33:45.518Z,87.54
2023-03-10T04:36:13.159Z,86.85
2023-03-10T04:38:39.927Z,88.64
2023-03-10T04:41:08.489Z,88.86
2023-03-10T04:43:42.402Z,88.06
2023-03-10T04:46:10.225Z,88.67
2023-03-10T04:48:37.541Z,90.64
2023-03-10T04:51:06.831Z,90.12
2023-03-10T04:53:39.453Z,88.64
2023-03-10T04:56:08.075Z,88.28
2023-03-10T04:58:36.871Z,89.24
2023-03-10T05:01:09.390Z,90.03
2023-03-10T05:03:39.074Z,90.67
2023-03-10T05:06:15.962Z,90.36
2023-03-10T05:08:46.289Z,89.57
2023-03-10T05:11:13.313Z,89.80
2023-03-10T05:13:40.111Z,88.73
2023-03-10T05:16:15.232Z,88.43
2023-03-10T05:18:42.010Z,88.57
2023-03-10T05:21:08.985Z,90.23
2023-03-10T05:23:35.642Z,89.39
2023-03-10T05:26:06.621Z,90.33
2023-03-10T05:28:33.358Z,89.79
2023-03-10T05:31:00.411Z,88.95
2023-03-10T05:33:30.221Z,88.61
2023-03-10T05:35:58.691Z,88.35
2023-03-10T05:38:25.429Z,88.33
2023-03-10T05:40:52.352Z,88.69
2023-03-10T05:43:19.436Z,88.11
2023-03-10T05:45:54.945Z,88.07
2023-03-10T05:48:21.645Z,89.14
2023-03-10T05:51:06.192Z,88.77
2023-03-10T05:53:34.003Z,88.78
2023-03-10T05:56:05.683Z,88.25
2023-03-10T05:58:32.274Z,90.34
2023-03-10T06:01:02.293Z,90.07
2023-03-10T06:03:30.418Z,89.88
2023-03-10T06:05:57.865Z,89.05
2023-03-10T06:08:25.207Z,88.42
2023-03-10T06:10:51.791Z,89.56
2023-03-10T06:13:21.276Z,89.58
2023-03-10T06:15:52.288Z,89.49
2023-03-10T06:18:19.856Z,89.32
2023-03-10T06:20:47.960Z,88.85
2023-03-10T06:23:15.569Z,89.34
2023-03-10T06:25:42.616Z,88.94
2023-03-10T06:28:10.082Z,88.14
2023-03-10T06:30:36.956Z,88.63
2023-03-10T06:33:03.772Z,88.84
2023-03-10T06:35:31.391Z,88.50
2023-03-10T06:37:57.940Z,88.03
2023-03-10T06:40:24.533Z,87.34
2023-03-10T06:42:51.102Z,87.98
2023-03-10T06:45:17.890Z,88.26
2023-03-10T06:47:44.819Z,88.98
2023-03-10T06:50:13.751Z,88.35
2023-03-10T06:52:42.550Z,87.68
2023-03-10T06:55:10.808Z,87.49
2023-03-10T06:57:37.915Z,87.99
2023-03-10T07:00:05.682Z,89.35
2023-03-10T07:02:32.241Z,88.52
2023-03-10T07:04:59.066Z,88.24
2023-03-10T07:07:26.107Z,87.62
2023-03-10T07:09:52.658Z,87.54
2023-03-10T07:12:19.218Z,88.14
2023-03-10T07:14:45.774Z,87.90
2023-03-10T07:17:12.430Z,88.62
2023-03-10T07:19:38.993Z,88.67
2023-03-10T07:22:05.639Z,88.98
2023-03-10T07:24:32.478Z,88.48
2023-03-10T07:27:00.265Z,87.69
2023-03-10T07:29:27.146Z,87.91
2023-03-10T07:31:53.990Z,88.99
2023-03-10T07:34:20.573Z,87.78
2023-03-10T07:36:47.296Z,88.24
2023-03-10T07:39:13.838Z,89.51
2023-03-10T07:41:40.460Z,89.12
2023-03-10T07:44:07.116Z,88.26
2023-03-10T07:46:33.799Z,88.07
2023-03-10T07:49:04.235Z,88.64
2023-03-10T07:51:31.576Z,87.55
2023-03-10T07:53:58.113Z,88.70
2023-03-10T07:56:24.710Z,89.57
2023-03-10T07:58:51.265Z,88.73
2023-03-10T08:01:20.307Z,88.93
2023-03-10T08:03:47.020Z,89.39
2023-03-10T08:06:23.234Z,88.70
2023-03-10T08:08:50.377Z,90.11
2023-03-10T08:11:17.107Z,88.72
2023-03-10T08:13:46.168Z,89.76
2023-03-10T08:16:14.984Z,90.73
2023-03-10T08:18:41.846Z,88.81
2023-03-10T08:21:08.958Z,87.19
2023-03-10T08:23:36.815Z,86.17
2023-03-10T08:26:10.750Z,86.59
2023-03-10T08:28:39.038Z,86.96
2023-03-10T08:31:11.696Z,87.60
2023-03-10T08:33:38.811Z,86.72
2023-03-10T08:36:08.026Z,87.45
2023-03-10T08:38:35.129Z,86.57
2023-03-10T08:41:10.012Z,86.61
2023-03-10T08:43:36.657Z,85.83
2023-03-10T08:46:03.274Z,86.26
2023-03-10T08:48:29.955Z,89.00
2023-03-10T08:50:57.869Z,88.37
2023-03-10T08:53:25.164Z,87.79
2023-03-10T08:55:51.752Z,89.29
2023-03-10T08:58:18.338Z,89.27
2023-03-10T09:00:45.132Z,86.68
2023-03-10T09:03:13.776Z,86.62
2023-03-10T09:05:41.961Z,86.15
2023-03-10T09:08:08.776Z,86.43
2023-03-10T09:10:37.099Z,86.35
2023-03-10T09:13:13.373Z,86.63
2023-03-10T09:15:41.577Z,87.49
2023-03-10T09:18:12.802Z,86.72
2023-03-10T09:20:40.281Z,88.03
2023-03-10T09:23:07.833Z,87.21
2023-03-10T09:25:34.507Z,86.83
2023-03-10T09:28:01.146Z,89.00
2023-03-10T09:30:27.771Z,89.68
2023-03-10T09:32:57.014Z,88.03
2023-03-10T09:35:23.790Z,87.91
2023-03-10T09:37:50.709Z,87.15
2023-03-10T09:40:20.794Z,87.20
2023-03-10T09:42:49.245Z,86.69
2023-03-10T09:45:23.384Z,87.17
2023-03-10T09:48:06.231Z,88.20
2023-03-10T09:50:49.965Z,87.80
2023-03-10T09:53:44.060Z,87.64
2023-03-10T09:56:13.461Z,87.64
2023-03-10T09:58:44.021Z,88.27
2023-03-10T10:01:16.976Z,87.59
2023-03-10T10:03:53.814Z,88.79
2023-03-10T10:06:30.712Z,89.01
2023-03-10T10:09:05.305Z,88.30
2023-03-10T10:11:34.044Z,87.82
2023-03-10T10:14:22.454Z,87.99
2023-03-10T10:17:14.243Z,88.27
2023-03-10T10:19:41.183Z,87.42
2023-03-10T10:22:13.165Z,90.91
2023-03-10T10:24:40.712Z,89.13
2023-03-10T10:27:07.305Z,88.68
2023-03-10T10:29:36.651Z,89.02
2023-03-10T10:32:12.844Z,89.39
2023-03-10T10:34:41.680Z,88.32
2023-03-10T10:37:34.005Z,88.36
2023-03-10T10:40:02.233Z,88.53
2023-03-10T10:42:31.015Z,88.47
2023-03-10T10:45:00.179Z,89.37
2023-03-10T10:47:35.254Z,91.22
2023-03-10T10:50:27.566Z,89.57
2023-03-10T10:53:34.391Z,88.95
2023-03-10T10:56:06.534Z,89.82
2023-03-10T10:58:34.366Z,89.09
2023-03-10T11:01:09.813Z,89.04
2023-03-10T11:03:40.504Z,89.86
2023-03-10T11:06:14.785Z,90.97
2023-03-10T11:08:45.135Z,89.65
2023-03-10T11:11:33.669Z,89.39
2023-03-10T11:14:24.877Z,89.59
2023-03-10T11:17:27.325Z,89.88
2023-03-10T11:20:07.083Z,89.50
2023-03-10T11:22:39.844Z,88.96
2023-03-10T11:25:23.343Z,87.91
2023-03-10T11:28:12.133Z,87.79
2023-03-10T11:30:43.699Z,88.49
2023-03-10T11:33:16.173Z,88.04
2023-03-10T11:35:49.489Z,87.11
2023-03-10T11:38:30.765Z,87.50
2023-03-10T11:40:59.350Z,87.73
2023-03-10T11:43:51.009Z,87.54
2023-03-10T11:46:44.590Z,88.04
2023-03-10T11:49:12.686Z,87.50
2023-03-10T11:51:50.050Z,87.34
2023-03-10T11:54:27.086Z,87.74
2023-03-10T11:56:54.372Z,88.94
2023-03-10T11:59:27.118Z,88.32
2023-03-10T12:02:24.640Z,87.70
2023-03-10T12:04:54.516Z,88.78
2023-03-10T12:07:40.261Z,88.77
2023-03-10T12:10:12.911Z,88.13
2023-03-10T12:12:44.862Z,87.78
2023-03-10T12:15:23.621Z,87.33
2023-03-10T12:17:51.671Z,86.56
2023-03-10T12:20:18.152Z,86.75
2023-03-10T12:22:55.319Z,86.18
2023-03-10T12:25:27.888Z,86.30
2023-03-10T12:28:18.925Z,86.45
2023-03-10T12:31:22.774Z,86.40
2023-03-10T12:33:50.590Z,87.00
2023-03-10T12:36:37.834Z,86.84
2023-03-10T12:39:30.346Z,88.20
2023-03-10T12:42:26.921Z,86.16
2023-03-10T12:44:58.112Z,86.44
2023-03-10T12:47:35.279Z,87.16
2023-03-10T12:50:20.269Z,86.84
2023-03-10T12:52:53.260Z,84.93
2023-03-10T12:55:22.672Z,85.68
2023-03-10T12:58:04.354Z,84.62
2023-03-10T13:00:50.901Z,83.67
2023-03-10T13:03:43.550Z,85.46
2023-03-10T13:06:20.991Z,83.38
2023-03-10T13:09:10.138Z,81.89
2023-03-10T13:11:43.160Z,85.58
2023-03-10T13:14:13.280Z,84.98
2023-03-10T13:16:39.943Z,83.36
2023-03-10T13:19:06.690Z,81.56
2023-03-10T13:21:38.140Z,81.90
2023-03-10T13:24:28.922Z,81.41
2023-03-10T13:27:18.962Z,81.83
2023-03-10T13:30:05.735Z,82.92
2023-03-10T13:32:33.015Z,83.12
2023-03-10T13:35:13.017Z,85.75
2023-03-10T13:37:39.596Z,84.74
2023-03-10T13:40:10.980Z,83.12
2023-03-10T13:42:44.356Z,81.27
2023-03-10T13:45:22.352Z,80.77
2023-03-10T13:47:49.793Z,78.90
2023-03-10T13:50:17.063Z,81.49
2023-03-10T13:52:54.860Z,83.85
2023-03-10T13:55:21.533Z,82.71
2023-03-10T13:57:48.528Z,83.24
2023-03-10T14:00:20.783Z,81.81
2023-03-10T14:02:48.811Z,81.48
2023-03-10T14:05:41.728Z,82.86
2023-03-10T14:08:17.868Z,83.33
2023-03-10T14:10:46.009Z,82.14
2023-03-10T14:13:38.622Z,84.13
2023-03-10T14:16:05.424Z,83.31
2023-03-10T14:18:37.081Z,82.67
2023-03-10T14:21:23.428Z,84.40
2023-03-10T14:23:51.871Z,82.74
2023-03-10T14:26:18.451Z,85.08
2023-03-10T14:28:45.149Z,86.37
2023-03-10T14:31:21.160Z,84.45
2023-03-10T14:33:48.067Z,84.11
2023-03-10T14:36:14.681Z,82.17
2023-03-10T14:38:41.484Z,81.73
2023-03-10T14:41:08.141Z,83.87
2023-03-10T14:43:35.664Z,82.40
2023-03-10T14:46:02.643Z,83.54
2023-03-10T14:48:31.084Z,83.89
2023-03-10T14:50:57.649Z,82.29
2023-03-10T14:53:25.931Z,81.98
2023-03-10T14:55:55.437Z,81.51
2023-03-10T14:58:24.475Z,81.67
2023-03-10T15:00:51.103Z,81.00
2023-03-10T15:03:17.713Z,79.88
2023-03-10T15:05:48.644Z,82.59
2023-03-10T15:08:16.851Z,83.24
2023-03-10T15:10:48.146Z,81.42
2023-03-10T15:13:15.158Z,82.80
2023-03-10T15:15:43.643Z,82.06
2023-03-10T15:18:16.217Z,82.87
2023-03-10T15:20:42.868Z,82.71
2023-03-10T15:23:10.155Z,83.19
2023-03-10T15:25:37.894Z,81.30
2023-03-10T15:28:04.505Z,81.91
2023-03-10T15:30:34.051Z,82.21
2023-03-10T15:33:01.294Z,82.33
2023-03-10T15:35:29.323Z,81.00
2023-03-10T15:37:56.984Z,82.94
2023-03-10T15:40:30.812Z,84.40
2023-03-10T15:42:58.359Z,83.08
2023-03-10T15:45:26.681Z,87.11
2023-03-10T15:47:53.374Z,85.76
2023-03-10T15:50:20.907Z,85.96
2023-03-10T15:53:05.794Z,86.73
2023-03-10T15:55:32.553Z,86.58
2023-03-10T15:57:59.173Z,85.96
2023-03-10T16:00:26.524Z,84.54
2023-03-10T16:02:53.169Z,85.04
2023-03-10T16:05:19.755Z,86.40
2023-03-10T16:07:46.648Z,85.65
2023-03-10T16:10:15.622Z,84.76
2023-03-10T16:12:42.360Z,88.39
2023-03-10T16:15:09.869Z,90.72
2023-03-10T16:17:36.615Z,88.69
2023-03-10T16:20:08.963Z,86.37
2023-03-10T16:22:40.366Z,85.28
2023-03-10T16:25:17.705Z,86.37
2023-03-10T16:27:45.686Z,86.37
2023-03-10T16:30:14.602Z,87.56
2023-03-10T16:32:45.212Z,88.46
2023-03-10T16:35:12.173Z,88.46
2023-03-10T16:37:38.806Z,90.06
2023-03-10T16:40:06.235Z,90.47
2023-03-10T16:42:35.921Z,91.76
2023-03-10T16:45:03.777Z,91.56
2023-03-10T16:47:30.421Z,91.59
2023-03-10T16:49:57.140Z,94.05
2023-03-10T16:52:23.770Z,93.97
2023-03-10T16:54:50.365Z,92.41
2023-03-10T16:57:16.972Z,90.45
2023-03-10T16:59:44.739Z,90.27
2023-03-10T17:02:16.151Z,92.37
2023-03-10T17:04:43.203Z,92.51
2023-03-10T17:07:09.791Z,89.95
2023-03-10T17:09:38.036Z,88.11
2023-03-10T17:12:05.066Z,86.99
2023-03-10T17:14:31.668Z,87.18
2023-03-10T17:16:58.437Z,85.73
2023-03-10T17:19:29.876Z,86.74
2023-03-10T17:21:57.540Z,88.47
2023-03-10T17:24:24.361Z,87.49
2023-03-10T17:26:50.953Z,85.87
2023-03-10T17:29:18.163Z,86.00
2023-03-10T17:31:48.927Z,86.88
2023-03-10T17:34:15.724Z,87.41
2023-03-10T17:36:42.289Z,86.55
2023-03-10T17:39:08.936Z,85.82
2023-03-10T17:41:36.196Z,85.00
2023-03-10T17:44:04.809Z,86.67
2023-03-10T17:46:31.840Z,86.57
2023-03-10T17:48:58.448Z,89.30
2023-03-10T17:51:27.361Z,87.38
2023-03-10T17:53:58.298Z,86.25
2023-03-10T17:56:25.773Z,85.39
2023-03-10T17:58:56.096Z,85.40
2023-03-10T18:01:26.579Z,84.62
2023-03-10T18:03:54.150Z,87.26
2023-03-10T18:06:22.745Z,87.74
2023-03-10T18:08:50.236Z,86.92
2023-03-10T18:11:17.581Z,87.12
2023-03-10T18:13:44.545Z,87.85
2023-03-10T18:16:17.639Z,87.21
2023-03-10T18:18:45.036Z,88.24
2023-03-10T18:21:12.959Z,86.66
2023-03-10T18:23:39.553Z,87.32
2023-03-10T18:26:10.489Z,86.42
2023-03-10T18:28:37.637Z,86.08
2023-03-10T18:31:09.560Z,90.02
2023-03-10T18:33:37.202Z,90.00
2023-03-10T18:36:06.112Z,88.91
2023-03-10T18:38:33.346Z,88.71
2023-03-10T18:41:01.430Z,87.70
2023-03-10T18:43:29.385Z,88.40
2023-03-10T18:45:56.186Z,88.54
2023-03-10T18:48:25.726Z,85.97
2023-03-10T18:50:52.912Z,87.37
2023-03-10T18:53:19.712Z,88.42
2023-03-10T18:55:46.503Z,89.19
2023-03-10T18:58:13.260Z,89.83
2023-03-10T19:00:40.228Z,90.17
2023-03-10T19:03:07.392Z,89.84
2023-03-10T19:05:34.170Z,88.75
2023-03-10T19:08:00.741Z,88.78
2023-03-10T19:10:27.364Z,89.44
2023-03-10T19:12:54.161Z,87.52
2023-03-10T19:15:20.808Z,87.87
2023-03-10T19:17:47.443Z,86.77
2023-03-10T19:20:14.761Z,90.29
2023-03-10T19:22:42.415Z,91.19
2023-03-10T19:25:12.087Z,90.66
2023-03-10T19:27:42.138Z,89.16
2023-03-10T19:30:11.175Z,89.17
2023-03-10T19:32:41.046Z,90.63
2023-03-10T19:35:08.969Z,90.11
2023-03-10T19:37:36.747Z,89.40
2023-03-10T19:40:06.135Z,89.00
2023-03-10T19:42:34.279Z,89.21
2023-03-10T19:45:01.330Z,89.05
2023-03-10T19:47:30.959Z,89.29
2023-03-10T19:49:57.519Z,90.76
2023-03-10T19:52:24.129Z,90.40
2023-03-10T19:54:51.304Z,92.48
2023-03-10T19:57:18.040Z,92.52
2023-03-10T19:59:44.591Z,91.29
2023-03-10T20:02:13.714Z,89.96
2023-03-10T20:04:40.574Z,90.97
2023-03-10T20:07:07.200Z,90.36
2023-03-10T20:09:34.048Z,90.85
2023-03-10T20:12:00.644Z,88.86
2023-03-10T20:14:27.687Z,89.63
2023-03-10T20:16:54.926Z,87.95
2023-03-10T20:19:22.918Z,89.90
2023-03-10T20:21:50.623Z,90.34
2023-03-10T20:24:18.047Z,88.92
2023-03-10T20:26:45.042Z,90.90
2023-03-10T20:29:12.450Z,89.94
2023-03-10T20:31:39.101Z,88.43
2023-03-10T20:34:08.057Z,89.52
2023-03-10T20:36:34.621Z,88.39
2023-03-10T20:39:01.170Z,87.20
2023-03-10T20:41:27.802Z,89.72
2023-03-10T20:43:55.332Z,90.07
2023-03-10T20:46:22.917Z,89.80
2023-03-10T20:48:50.692Z,87.58
2023-03-10T20:51:19.157Z,88.37
2023-03-10T20:53:45.932Z,89.00
2023-03-10T20:56:14.324Z,89.55
2023-03-10T20:58:41.128Z,87.69
2023-03-10T21:01:14.784Z,87.51
2023-03-10T21:03:41.422Z,89.04
2023-03-10T21:06:08.081Z,89.01
2023-03-10T21:08:34.852Z,88.03
2023-03-10T21:11:01.410Z,88.22
2023-03-10T21:13:28.282Z,88.14
2023-03-10T21:15:54.954Z,87.51
2023-03-10T21:18:21.588Z,86.58
2023-03-10T21:20:48.174Z,88.82
2023-03-10T21:23:14.755Z,89.54
2023-03-10T21:25:41.761Z,91.36
2023-03-10T21:28:08.726Z,91.44
2023-03-10T21:30:35.397Z,91.21
2023-03-10T21:33:02.012Z,89.83
2023-03-10T21:35:31.955Z,89.68
2023-03-10T21:37:59.481Z,89.93
2023-03-10T21:40:26.730Z,89.38
2023-03-10T21:42:53.304Z,89.87
2023-03-10T21:45:21.873Z,88.23
2023-03-10T21:47:48.564Z,89.71
2023-03-10T21:50:16.035Z,90.75
2023-03-10T21:52:43.285Z,89.02
2023-03-10T21:55:23.039Z,88.89
2023-03-10T21:57:50.034Z,89.58
2023-03-10T22:00:19.865Z,91.21
2023-03-10T22:02:47.366Z,90.77
2023-03-10T22:05:16.560Z,90.23
2023-03-10T22:07:43.435Z,92.07
2023-03-10T22:10:11.427Z,93.07
2023-03-10T22:12:38.158Z,92.09
2023-03-10T22:15:06.804Z,90.67
2023-03-10T22:17:33.771Z,90.67
2023-03-10T22:20:01.766Z,89.89
2023-03-10T22:22:28.339Z,90.56
2023-03-10T22:24:55.010Z,89.10
2023-03-10T22:27:21.574Z,88.29
2023-03-10T22:29:48.184Z,87.91
2023-03-10T22:32:14.830Z,88.12
2023-03-10T22:34:42.237Z,87.44
2023-03-10T22:37:10.399Z,86.31
2023-03-10T22:39:37.490Z,86.86
2023-03-10T22:42:04.899Z,87.79
2023-03-10T22:44:36.400Z,87.60
2023-03-10T22:47:03.612Z,88.04
2023-03-10T22:49:31.501Z,89.14
2023-03-10T22:51:58.408Z,88.16
2023-03-10T22:54:25.292Z,89.05
2023-03-10T22:56:52.007Z,90.87
2023-03-10T22:59:22.893Z,92.09
2023-03-10T23:01:49.629Z,90.29
2023-03-10T23:04:16.267Z,89.27
2023-03-10T23:06:42.948Z,90.12
2023-03-10T23:09:10.970Z,91.29
2023-03-10T23:11:38.007Z,91.08
2023-03-10T23:14:04.564Z,91.49
2023-03-10T23:16:36.632Z,89.69
2023-03-10T23:19:06.074Z,87.96
2023-03-10T23:21:35.089Z,88.71
2023-03-10T23:24:01.767Z,87.41
2023-03-10T23:26:34.183Z,87.50
2023-03-10T23:29:02.972Z,87.00
2023-03-10T23:31:29.634Z,87.10
2023-03-10T23:33:56.236Z,86.81
2023-03-10T23:36:22.954Z,86.95
2023-03-10T23:38:50.723Z,86.49
2023-03-10T23:41:18.487Z,86.15
2023-03-10T23:43:45.195Z,85.99
2023-03-10T23:46:11.943Z,85.24
2023-03-10T23:48:38.728Z,85.37
2023-03-10T23:51:05.509Z,85.26
2023-03-10T23:53:32.143Z,84.38
2023-03-10T23:55:59.034Z,84.60
2023-03-10T23:58:28.066Z,84.29
